| time (UTC) | temp F | wind direction | speed MPH | gust MPH | rain 1hr in | rain 24hr in | rain mn in | humidity % | barometer mb |
| 20260510131531 | 69 | 146 | 0.0 | 0.0 | 0.00 | 0.00 | 0.00 | 31 | 1007.9 |
| 20260510130031 | 66 | 45 | 0.0 | 1.0 | 0.00 | 0.00 | 0.00 | 31 | 1007.9 |
| 20260510124529 | 66 | 15 | 0.0 | 2.0 | 0.00 | 0.00 | 0.00 | 31 | 1007.8 |
| 20260510123029 | 67 | 141 | 0.0 | 2.0 | 0.00 | 0.00 | 0.00 | 28 | 1007.7 |
| 20260510121526 | 68 | 148 | 0.0 | 2.0 | 0.00 | 0.00 | 0.00 | 27 | 1007.5 |
| 20260510120024 | 68 | 143 | 1.0 | 4.0 | 0.00 | 0.00 | 0.00 | 26 | 1007.4 |
| 20260510114524 | 67 | 135 | 1.0 | 4.0 | 0.00 | 0.00 | 0.00 | 27 | 1007.4 |
| 20260510113023 | 67 | 136 | 2.0 | 5.0 | 0.00 | 0.00 | 0.00 | 27 | 1007.2 |
| 20260510111521 | 66 | 191 | 2.0 | 4.0 | 0.00 | 0.00 | 0.00 | 30 | 1007.2 |
| 20260510110021 | 66 | 152 | 0.0 | 1.0 | 0.00 | 0.00 | 0.00 | 31 | 1007.1 |
| 20260510104515 | 68 | 82 | 0.0 | 2.0 | 0.00 | 0.00 | 0.00 | 29 | 1007.0 |
| 20260510103015 | 67 | 66 | 1.0 | 2.0 | 0.00 | 0.00 | 0.00 | 29 | 1007.0 |
| 20260510101514 | 67 | 58 | 0.0 | 1.0 | 0.00 | 0.00 | 0.00 | 30 | 1006.8 |
| 20260510100012 | 68 | 58 | 0.0 | 1.0 | 0.00 | 0.00 | 0.00 | 31 | 1006.6 |
| 20260510094510 | 69 | 25 | 0.0 | 2.0 | 0.00 | 0.00 | 0.00 | 29 | 1006.6 |
| 20260510093007 | 70 | 131 | 0.0 | 2.0 | 0.00 | 0.00 | 0.00 | 26 | 1006.6 |
| 20260510091502 | 72 | 150 | 0.0 | 3.0 | 0.00 | 0.00 | 0.00 | 24 | 1006.5 |
| 20260510090002 | 73 | 154 | 0.0 | 3.0 | 0.00 | 0.00 | 0.00 | 23 | 1006.5 |
| 20260510084602 | 72 | 149 | 1.0 | 4.0 | 0.00 | 0.00 | 0.00 | 24 | 1006.6 |
| 20260510083105 | 73 | 150 | 2.0 | 5.0 | 0.00 | 0.00 | 0.00 | 23 | 1006.7 |
| 20260510081557 | 74 | 172 | 0.0 | 2.0 | 0.00 | 0.00 | 0.00 | 23 | 1006.7 |
| 20260510080059 | 72 | 155 | 0.0 | 3.0 | 0.00 | 0.00 | 0.00 | 25 | 1006.8 |
| 20260510074617 | 72 | 160 | 1.0 | 3.0 | 0.00 | 0.00 | 0.00 | 26 | 1006.9 |
| 20260510073051 | 72 | 101 | 0.0 | 0.0 | 0.00 | 0.00 | 0.00 | 26 | 1006.8 |
| 20260510071556 | 74 | 127 | 0.0 | 0.0 | 0.00 | 0.00 | 0.00 | 24 | 1006.9 |
| 20260510070043 | 76 | 186 | 0.0 | 1.0 | 0.00 | 0.00 | 0.00 | 22 | 1006.9 |
| 20260510064602 | 77 | 219 | 0.0 | 1.0 | 0.00 | 0.00 | 0.00 | 20 | 1006.7 |
| 20260510063041 | 78 | 239 | 0.0 | 3.0 | 0.00 | 0.00 | 0.00 | 20 | 1006.5 |
| 20260510061542 | 77 | 235 | 1.0 | 4.0 | 0.00 | 0.00 | 0.00 | 21 | 1006.3 |
| 20260510060051 | 75 | 194 | 0.0 | 2.0 | 0.00 | 0.00 | 0.00 | 25 | 1006.1 |
| 20260510054540 | 75 | 101 | 0.0 | 0.0 | 0.00 | 0.00 | 0.00 | 26 | 1005.8 |
| 20260510053041 | 76 | 99 | 0.0 | 0.0 | 0.00 | 0.00 | 0.00 | 25 | 1005.4 |
| 20260510051551 | 76 | 97 | 0.0 | 0.0 | 0.00 | 0.00 | 0.00 | 25 | 1005.3 |
| 20260510050040 | 76 | 95 | 0.0 | 0.0 | 0.00 | 0.00 | 0.00 | 25 | 1005.2 |
| 20260510044541 | 77 | 95 | 0.0 | 0.0 | 0.00 | 0.00 | 0.00 | 25 | 1005.0 |
| 20260510043045 | 79 | 58 | 0.0 | 0.0 | 0.00 | 0.00 | 0.00 | 22 | 1004.9 |
| 20260510041549 | 80 | 58 | 0.0 | 0.0 | 0.00 | 0.00 | 0.00 | 20 | 1004.7 |
| 20260510040036 | 81 | 58 | 0.0 | 0.0 | 0.00 | 0.00 | 0.00 | 19 | 1004.5 |
| 20260510034536 | 84 | 307 | 0.0 | 1.0 | 0.00 | 0.00 | 0.00 | 16 | 1004.3 |
| 20260510033035 | 84 | 325 | 0.0 | 3.0 | 0.00 | 0.00 | 0.00 | 16 | 1004.1 |
| 20260510031535 | 84 | 349 | 0.0 | 0.0 | 0.00 | 0.00 | 0.00 | 16 | 1003.9 |
| 20260510030034 | 86 | 322 | 0.0 | 2.0 | 0.00 | 0.00 | 0.00 | 15 | 1003.7 |
| 20260510024542 | 87 | 321 | 0.0 | 0.0 | 0.00 | 0.00 | 0.00 | 14 | 1003.5 |
| 20260510023032 | 89 | 299 | 0.0 | 2.0 | 0.00 | 0.00 | 0.00 | 13 | 1003.4 |
| 20260510021533 | 90 | 304 | 1.0 | 4.0 | 0.00 | 0.00 | 0.00 | 12 | 1003.3 |
| 20260510020032 | 92 | 268 | 1.0 | 7.0 | 0.00 | 0.00 | 0.00 | 12 | 1003.2 |
| 20260510014532 | 93 | 313 | 2.0 | 7.0 | 0.00 | 0.00 | 0.00 | 11 | 1003.0 |
| 20260510013030 | 94 | 257 | 2.0 | 10.0 | 0.00 | 0.00 | 0.00 | 11 | 1003.0 |
| 20260510011536 | 94 | 279 | 5.0 | 9.0 | 0.00 | 0.00 | 0.00 | 11 | 1003.0 |
| 20260510010037 | 94 | 288 | 4.0 | 10.0 | 0.00 | 0.00 | 0.00 | 11 | 1002.9 |
| 20260510004528 | 95 | 321 | 2.0 | 12.0 | 0.00 | 0.00 | 0.00 | 11 | 1003.0 |
| 20260510003032 | 96 | 268 | 4.0 | 8.0 | 0.00 | 0.00 | 0.00 | 11 | 1003.0 |
| 20260510001528 | 97 | 281 | 4.0 | 9.0 | 0.00 | 0.00 | 0.00 | 11 | 1003.0 |
| 20260510000025 | 97 | 324 | 2.0 | 10.0 | 0.00 | 0.00 | 0.00 | 11 | 1003.1 |
| 20260509234526 | 97 | 342 | 4.0 | 10.0 | 0.00 | 0.00 | 0.00 | 10 | 1003.3 |
| 20260509233023 | 97 | 305 | 3.0 | 9.0 | 0.00 | 0.00 | 0.00 | 10 | 1003.4 |
| 20260509231529 | 97 | 304 | 4.0 | 15.0 | 0.00 | 0.00 | 0.00 | 11 | 1003.5 |
| 20260509230020 | 98 | 274 | 5.0 | 10.0 | 0.00 | 0.00 | 0.00 | 11 | 1003.6 |
| 20260509224517 | 99 | 328 | 3.0 | 8.0 | 0.00 | 0.00 | 0.00 | 10 | 1003.8 |
| 20260509223018 | 98 | 269 | 1.0 | 7.0 | 0.00 | 0.00 | 0.00 | 11 | 1004.1 |
| 20260509221527 | 98 | 272 | 4.0 | 13.0 | 0.00 | 0.00 | 0.00 | 10 | 1004.4 |
| 20260509220013 | 98 | 219 | 3.0 | 12.0 | 0.00 | 0.00 | 0.00 | 11 | 1004.4 |
| 20260509214509 | 97 | 277 | 3.0 | 11.0 | 0.00 | 0.00 | 0.00 | 11 | 1004.7 |
| 20260509213008 | 98 | 277 | 3.0 | 6.0 | 0.00 | 0.00 | 0.00 | 11 | 1004.9 |
| 20260509211505 | 97 | 283 | 4.0 | 8.0 | 0.00 | 0.00 | 0.00 | 11 | 1005.1 |
| 20260509210003 | 97 | 246 | 3.0 | 9.0 | 0.00 | 0.00 | 0.00 | 11 | 1005.4 |
| 20260509204603 | 98 | 252 | 4.0 | 10.0 | 0.00 | 0.00 | 0.00 | 12 | 1005.6 |
| 20260509203059 | 97 | 255 | 4.0 | 11.0 | 0.00 | 0.00 | 0.00 | 12 | 1005.8 |
| 20260509201556 | 97 | 194 | 2.0 | 8.0 | 0.00 | 0.00 | 0.00 | 13 | 1006.1 |
| 20260509200059 | 97 | 309 | 1.0 | 6.0 | 0.00 | 0.00 | 0.00 | 12 | 1006.3 |
| 20260509194551 | 96 | 279 | 3.0 | 9.0 | 0.00 | 0.00 | 0.00 | 13 | 1006.5 |
| 20260509193100 | 95 | 272 | 1.0 | 9.0 | 0.00 | 0.00 | 0.00 | 13 | 1006.7 |
| 20260509191608 | 94 | 20 | 2.0 | 8.0 | 0.00 | 0.00 | 0.00 | 14 | 1006.9 |
| 20260509190049 | 93 | 338 | 5.0 | 8.0 | 0.00 | 0.00 | 0.00 | 15 | 1007.0 |
| 20260509184541 | 93 | 353 | 1.0 | 6.0 | 0.00 | 0.00 | 0.00 | 16 | 1007.3 |
| 20260509183042 | 91 | 285 | 1.0 | 7.0 | 0.00 | 0.00 | 0.00 | 17 | 1007.6 |
| 20260509181539 | 91 | 269 | 2.0 | 6.0 | 0.00 | 0.00 | 0.00 | 17 | 1007.9 |
| 20260509180034 | 90 | 228 | 0.0 | 5.0 | 0.00 | 0.00 | 0.00 | 18 | 1008.1 |
| 20260509174533 | 90 | 255 | 2.0 | 5.0 | 0.00 | 0.00 | 0.00 | 18 | 1008.2 |
| 20260509173040 | 89 | 233 | 2.0 | 7.0 | 0.00 | 0.00 | 0.00 | 19 | 1008.3 |
| 20260509171533 | 88 | 252 | 2.0 | 5.0 | 0.00 | 0.00 | 0.00 | 19 | 1008.4 |
| 20260509170032 | 87 | 262 | 2.0 | 6.0 | 0.00 | 0.00 | 0.00 | 20 | 1008.6 |
| 20260509164523 | 86 | 249 | 2.0 | 6.0 | 0.00 | 0.00 | 0.00 | 20 | 1008.6 |
| 20260509163021 | 86 | 240 | 0.0 | 3.0 | 0.00 | 0.00 | 0.00 | 21 | 1008.7 |
| 20260509161517 | 84 | 225 | 1.0 | 3.0 | 0.00 | 0.00 | 0.00 | 21 | 1008.7 |
| 20260509160018 | 84 | 224 | 0.0 | 2.0 | 0.00 | 0.00 | 0.00 | 22 | 1008.7 |
| 20260509154513 | 83 | 233 | 0.0 | 0.0 | 0.00 | 0.00 | 0.00 | 23 | 1008.8 |
| 20260509153013 | 81 | 274 | 0.0 | 2.0 | 0.00 | 0.00 | 0.00 | 24 | 1008.8 |
| 20260509151510 | 81 | 309 | 0.0 | 1.0 | 0.00 | 0.00 | 0.00 | 24 | 1008.9 |
| 20260509150009 | 81 | 152 | 0.0 | 0.0 | 0.00 | 0.00 | 0.00 | 25 | 1008.9 |
| 20260509144506 | 77 | 143 | 0.0 | 1.0 | 0.00 | 0.00 | 0.00 | 27 | 1009.0 |
| 20260509143101 | 75 | 143 | 0.0 | 2.0 | 0.00 | 0.00 | 0.00 | 30 | 1009.0 |
| 20260509141557 | 73 | 149 | 1.0 | 2.0 | 0.00 | 0.00 | 0.00 | 31 | 1008.9 |
| 20260509140055 | 70 | 154 | 1.0 | 3.0 | 0.00 | 0.00 | 0.00 | 33 | 1008.8 |
| 20260509134606 | 68 | 141 | 1.0 | 4.0 | 0.00 | 0.00 | 0.00 | 33 | 1008.7 |
| 20260509133051 | 67 | 155 | 0.0 | 4.0 | 0.00 | 0.00 | 0.00 | 35 | 1008.6 |